Aérodrome :
LOGIN :

S'inscrire | Disclaimer

   EN    FR    IT 

 










Légende :    VFR   VFR Marginal   IFR   IFR Intensif   IFR Très Intensif
Visi : 
Plafond : 
>= 8 km
>= 3000ft
5 à 8 km
1000 à 3000 ft
1500m à 5 km
500 à 1000 ft
800 à 1500m
200 à 500 ft
< 800m
< 200 ft
Symboles :   Orages  Brouillard  Fortes neiges  Fortes précipitations  Vent > 20 kt
SIGMETs :   Divers  Orages  Givrage  Turbulence  Onde Orograph.  Cendres Volcan.







- Altitude de l'aérodrome : 23 ft
- Code IATA : XFW


EDHI - Hamburg Finkenwerder

DERNIER METAR :
  • 281150Z 20011KT 9999 SCT020 SCT098 09/04 Q1012

METARs EXPIRÉS :
  • 281120Z 21009KT 9999 -SHRA SCT015 BKN060 09/05 Q1012
  • 281050Z 21008KT 9000 -RA SCT011 BKN043 08/05 Q1012
  • 281020Z 21009KT 8000 BKN009 07/05 Q1012
  • 280950Z 20009KT 9999 -SHRA FEW017 BKN030 07/04 Q1012
  • 280920Z 22009KT 9999 VCSH BKN019 07/03 Q1012

TAF TAF EDHI
Valide du 28 à 12h jusqu'au 28 à 21h UTC


281100Z 2812/2821 23009KT 9999 BKN030
PROB30
TEMPO 2812/2820 SHRA BKN014CB
BECMG 2818/2820 28004KT
Pas de NOTAMs connus pour ce terrain.



MET'MAP, la Météo Aéronautique d'un coup d'oeil ! - Copyright ORBIFLY Décembre 2007 - Disclaimer

ORBIFLY MET'MAP TEAM :

Programmation & Développement : Alexandra Zaïnal
Conception & Développement : Baudouin d'Aumeries
Co-Programmation & Développement : Marc-Olivier Méhu
Soutien technique & logistique : Manuel Goepfert

Contact : metmap@orbifly.com




SOURCES & CREDITS :

   NOAA